sensor_id;sensor_type;location;lat;lon;timestamp;P1;durP1;ratioP1;P2;durP2;ratioP2
17606;SDS011;69222;52.242;20.980;2023-06-19T00:00:34;13.45;;;11.90;;
17606;SDS011;69222;52.242;20.980;2023-06-19T00:03:03;13.05;;;11.70;;
17606;SDS011;69222;52.242;20.980;2023-06-19T00:05:31;13.00;;;11.55;;
17606;SDS011;69222;52.242;20.980;2023-06-19T00:07:59;12.02;;;10.93;;
17606;SDS011;69222;52.242;20.980;2023-06-19T00:10:30;11.73;;;10.40;;
17606;SDS011;69222;52.242;20.980;2023-06-19T00:12:58;11.93;;;10.73;;
17606;SDS011;69222;52.242;20.980;2023-06-19T00:15:27;11.13;;;10.02;;
17606;SDS011;69222;52.242;20.980;2023-06-19T00:17:55;11.88;;;9.93;;
17606;SDS011;69222;52.242;20.980;2023-06-19T00:20:25;11.70;;;10.07;;
17606;SDS011;69222;52.242;20.980;2023-06-19T00:22:53;10.70;;;9.60;;
17606;SDS011;69222;52.242;20.980;2023-06-19T00:25:21;9.90;;;8.98;;
17606;SDS011;69222;52.242;20.980;2023-06-19T00:27:49;10.23;;;9.18;;
17606;SDS011;69222;52.242;20.980;2023-06-19T00:30:17;11.55;;;9.13;;
17606;SDS011;69222;52.242;20.980;2023-06-19T00:32:47;10.88;;;9.77;;
17606;SDS011;69222;52.242;20.980;2023-06-19T00:35:16;9.75;;;8.80;;
17606;SDS011;69222;52.242;20.980;2023-06-19T00:37:45;9.80;;;8.90;;
17606;SDS011;69222;52.242;20.980;2023-06-19T00:40:18;10.55;;;9.45;;
17606;SDS011;69222;52.242;20.980;2023-06-19T00:42:52;10.88;;;9.77;;
17606;SDS011;69222;52.242;20.980;2023-06-19T00:45:20;10.90;;;9.90;;
17606;SDS011;69222;52.242;20.980;2023-06-19T00:47:49;12.40;;;10.52;;
17606;SDS011;69222;52.242;20.980;2023-06-19T00:50:17;13.10;;;10.40;;
17606;SDS011;69222;52.242;20.980;2023-06-19T00:52:46;11.48;;;9.82;;
17606;SDS011;69222;52.242;20.980;2023-06-19T00:55:15;11.40;;;10.30;;
17606;SDS011;69222;52.242;20.980;2023-06-19T00:57:44;10.98;;;9.88;;
17606;SDS011;69222;52.242;20.980;2023-06-19T01:00:13;11.40;;;10.30;;
17606;SDS011;69222;52.242;20.980;2023-06-19T01:02:41;10.50;;;9.50;;
17606;SDS011;69222;52.242;20.980;2023-06-19T01:05:11;11.55;;;10.40;;
17606;SDS011;69222;52.242;20.980;2023-06-19T01:07:42;11.98;;;10.07;;
17606;SDS011;69222;52.242;20.980;2023-06-19T01:10:14;11.55;;;10.40;;
17606;SDS011;69222;52.242;20.980;2023-06-19T01:12:48;12.55;;;10.82;;
17606;SDS011;69222;52.242;20.980;2023-06-19T01:15:20;11.90;;;10.77;;
17606;SDS011;69222;52.242;20.980;2023-06-19T01:17:49;12.00;;;10.77;;
17606;SDS011;69222;52.242;20.980;2023-06-19T01:20:20;12.40;;;10.60;;
17606;SDS011;69222;52.242;20.980;2023-06-19T01:22:49;11.45;;;10.35;;
17606;SDS011;69222;52.242;20.980;2023-06-19T01:25:17;11.82;;;10.38;;
17606;SDS011;69222;52.242;20.980;2023-06-19T01:27:45;11.65;;;10.45;;
17606;SDS011;69222;52.242;20.980;2023-06-19T01:30:13;11.30;;;10.20;;
17606;SDS011;69222;52.242;20.980;2023-06-19T01:32:44;12.30;;;9.95;;
17606;SDS011;69222;52.242;20.980;2023-06-19T01:35:19;11.27;;;10.18;;
17606;SDS011;69222;52.242;20.980;2023-06-19T01:37:50;10.40;;;9.40;;
17606;SDS011;69222;52.242;20.980;2023-06-19T01:40:20;11.07;;;10.07;;
17606;SDS011;69222;52.242;20.980;2023-06-19T01:42:52;11.10;;;10.00;;
17606;SDS011;69222;52.242;20.980;2023-06-19T01:45:21;10.50;;;9.45;;
17606;SDS011;69222;52.242;20.980;2023-06-19T01:47:49;11.65;;;9.32;;
17606;SDS011;69222;52.242;20.980;2023-06-19T01:50:17;11.40;;;10.25;;
17606;SDS011;69222;52.242;20.980;2023-06-19T01:52:46;9.90;;;9.00;;
17606;SDS011;69222;52.242;20.980;2023-06-19T01:55:15;11.30;;;10.20;;
17606;SDS011;69222;52.242;20.980;2023-06-19T01:57:43;10.75;;;9.32;;
17606;SDS011;69222;52.242;20.980;2023-06-19T02:00:12;10.60;;;9.50;;
17606;SDS011;69222;52.242;20.980;2023-06-19T02:02:40;10.40;;;9.27;;
17606;SDS011;69222;52.242;20.980;2023-06-19T02:05:09;10.40;;;9.30;;
17606;SDS011;69222;52.242;20.980;2023-06-19T02:07:37;11.02;;;9.93;;
17606;SDS011;69222;52.242;20.980;2023-06-19T02:10:05;11.10;;;10.00;;
17606;SDS011;69222;52.242;20.980;2023-06-19T02:12:35;10.63;;;9.13;;
17606;SDS011;69222;52.242;20.980;2023-06-19T02:15:04;11.02;;;9.35;;
17606;SDS011;69222;52.242;20.980;2023-06-19T02:17:32;9.82;;;8.93;;
17606;SDS011;69222;52.242;20.980;2023-06-19T02:20:00;9.75;;;8.82;;
17606;SDS011;69222;52.242;20.980;2023-06-19T02:22:28;11.43;;;10.25;;
17606;SDS011;69222;52.242;20.980;2023-06-19T02:24:56;10.88;;;9.77;;
17606;SDS011;69222;52.242;20.980;2023-06-19T02:27:24;13.02;;;9.88;;
17606;SDS011;69222;52.242;20.980;2023-06-19T02:29:54;9.75;;;8.85;;
17606;SDS011;69222;52.242;20.980;2023-06-19T02:32:22;10.90;;;9.80;;
17606;SDS011;69222;52.242;20.980;2023-06-19T02:34:50;11.45;;;9.95;;
17606;SDS011;69222;52.242;20.980;2023-06-19T02:37:18;10.35;;;9.35;;
17606;SDS011;69222;52.242;20.980;2023-06-19T02:39:46;10.55;;;9.55;;
17606;SDS011;69222;52.242;20.980;2023-06-19T02:42:14;11.43;;;10.15;;
17606;SDS011;69222;52.242;20.980;2023-06-19T02:44:42;11.27;;;10.02;;
17606;SDS011;69222;52.242;20.980;2023-06-19T02:47:12;11.13;;;10.02;;
17606;SDS011;69222;52.242;20.980;2023-06-19T02:49:40;12.98;;;9.98;;
17606;SDS011;69222;52.242;20.980;2023-06-19T02:52:08;11.18;;;10.00;;
17606;SDS011;69222;52.242;20.980;2023-06-19T02:54:36;11.32;;;9.98;;
17606;SDS011;69222;52.242;20.980;2023-06-19T02:57:04;11.90;;;10.38;;
17606;SDS011;69222;52.242;20.980;2023-06-19T02:59:32;11.23;;;10.10;;
17606;SDS011;69222;52.242;20.980;2023-06-19T03:02:00;11.30;;;9.95;;
17606;SDS011;69222;52.242;20.980;2023-06-19T03:04:30;10.77;;;9.68;;
17606;SDS011;69222;52.242;20.980;2023-06-19T03:06:58;10.98;;;9.98;;
17606;SDS011;69222;52.242;20.980;2023-06-19T03:09:26;10.75;;;9.50;;
17606;SDS011;69222;52.242;20.980;2023-06-19T03:11:54;11.07;;;9.98;;
17606;SDS011;69222;52.242;20.980;2023-06-19T03:14:22;10.85;;;9.85;;
17606;SDS011;69222;52.242;20.980;2023-06-19T03:16:50;12.55;;;10.63;;
17606;SDS011;69222;52.242;20.980;2023-06-19T03:19:18;12.25;;;10.63;;
17606;SDS011;69222;52.242;20.980;2023-06-19T03:21:48;11.57;;;10.38;;
17606;SDS011;69222;52.242;20.980;2023-06-19T03:24:16;11.57;;;9.80;;
17606;SDS011;69222;52.242;20.980;2023-06-19T03:26:44;10.73;;;9.75;;
17606;SDS011;69222;52.242;20.980;2023-06-19T03:29:12;11.13;;;9.98;;
17606;SDS011;69222;52.242;20.980;2023-06-19T03:31:40;12.30;;;10.52;;
17606;SDS011;69222;52.242;20.980;2023-06-19T03:34:08;11.15;;;10.07;;
17606;SDS011;69222;52.242;20.980;2023-06-19T03:36:36;11.85;;;10.30;;
17606;SDS011;69222;52.242;20.980;2023-06-19T03:39:05;10.27;;;9.32;;
17606;SDS011;69222;52.242;20.980;2023-06-19T03:41:33;10.18;;;9.27;;
17606;SDS011;69222;52.242;20.980;2023-06-19T03:44:01;10.00;;;9.00;;
17606;SDS011;69222;52.242;20.980;2023-06-19T03:46:29;12.18;;;10.98;;
17606;SDS011;69222;52.242;20.980;2023-06-19T03:48:57;10.65;;;9.65;;
17606;SDS011;69222;52.242;20.980;2023-06-19T03:51:25;11.75;;;10.57;;
17606;SDS011;69222;52.242;20.980;2023-06-19T03:53:55;11.45;;;10.32;;
17606;SDS011;69222;52.242;20.980;2023-06-19T03:56:24;12.00;;;9.98;;
17606;SDS011;69222;52.242;20.980;2023-06-19T03:58:52;11.90;;;9.75;;
17606;SDS011;69222;52.242;20.980;2023-06-19T04:01:20;11.35;;;10.25;;
17606;SDS011;69222;52.242;20.980;2023-06-19T04:03:48;10.95;;;9.90;;
17606;SDS011;69222;52.242;20.980;2023-06-19T04:06:16;10.90;;;9.82;;
17606;SDS011;69222;52.242;20.980;2023-06-19T04:08:44;11.77;;;10.48;;
17606;SDS011;69222;52.242;20.980;2023-06-19T04:11:12;11.20;;;10.20;;
17606;SDS011;69222;52.242;20.980;2023-06-19T04:13:42;13.65;;;10.85;;
17606;SDS011;69222;52.242;20.980;2023-06-19T04:16:10;10.43;;;9.38;;
17606;SDS011;69222;52.242;20.980;2023-06-19T04:18:38;12.20;;;11.00;;
17606;SDS011;69222;52.242;20.980;2023-06-19T04:21:06;11.65;;;10.45;;
17606;SDS011;69222;52.242;20.980;2023-06-19T04:23:34;12.90;;;11.60;;
17606;SDS011;69222;52.242;20.980;2023-06-19T04:26:02;12.98;;;9.77;;
17606;SDS011;69222;52.242;20.980;2023-06-19T04:28:30;10.75;;;9.65;;
17606;SDS011;69222;52.242;20.980;2023-06-19T04:30:59;10.85;;;9.70;;
17606;SDS011;69222;52.242;20.980;2023-06-19T04:33:27;11.50;;;10.48;;
17606;SDS011;69222;52.242;20.980;2023-06-19T04:35:56;10.73;;;9.73;;
17606;SDS011;69222;52.242;20.980;2023-06-19T04:38:24;11.27;;;10.07;;
17606;SDS011;69222;52.242;20.980;2023-06-19T04:40:52;10.68;;;9.57;;
17606;SDS011;69222;52.242;20.980;2023-06-19T04:43:20;10.98;;;9.98;;
17606;SDS011;69222;52.242;20.980;2023-06-19T04:45:51;11.88;;;10.68;;
17606;SDS011;69222;52.242;20.980;2023-06-19T04:48:21;11.90;;;10.32;;
17606;SDS011;69222;52.242;20.980;2023-06-19T04:50:52;11.50;;;10.32;;
17606;SDS011;69222;52.242;20.980;2023-06-19T04:53:22;9.95;;;9.05;;
17606;SDS011;69222;52.242;20.980;2023-06-19T04:55:50;11.48;;;10.05;;
17606;SDS011;69222;52.242;20.980;2023-06-19T04:58:21;10.25;;;9.23;;
17606;SDS011;69222;52.242;20.980;2023-06-19T05:00:49;12.43;;;10.55;;
17606;SDS011;69222;52.242;20.980;2023-06-19T05:03:18;10.75;;;9.43;;
17606;SDS011;69222;52.242;20.980;2023-06-19T05:05:48;10.55;;;9.20;;
17606;SDS011;69222;52.242;20.980;2023-06-19T05:08:16;10.30;;;9.27;;
17606;SDS011;69222;52.242;20.980;2023-06-19T05:10:44;11.02;;;9.98;;
17606;SDS011;69222;52.242;20.980;2023-06-19T05:13:12;12.13;;;11.02;;
17606;SDS011;69222;52.242;20.980;2023-06-19T05:15:40;10.30;;;9.23;;
17606;SDS011;69222;52.242;20.980;2023-06-19T05:18:08;10.13;;;8.68;;
17606;SDS011;69222;52.242;20.980;2023-06-19T05:20:38;9.77;;;8.88;;
17606;SDS011;69222;52.242;20.980;2023-06-19T05:23:05;9.00;;;8.10;;
17606;SDS011;69222;52.242;20.980;2023-06-19T05:25:33;9.70;;;8.75;;
17606;SDS011;69222;52.242;20.980;2023-06-19T05:28:01;9.13;;;8.23;;
17606;SDS011;69222;52.242;20.980;2023-06-19T05:30:31;11.85;;;8.98;;
17606;SDS011;69222;52.242;20.980;2023-06-19T05:32:59;10.82;;;8.52;;
17606;SDS011;69222;52.242;20.980;2023-06-19T05:35:27;9.05;;;8.20;;
17606;SDS011;69222;52.242;20.980;2023-06-19T05:37:58;12.27;;;9.40;;
17606;SDS011;69222;52.242;20.980;2023-06-19T05:40:26;8.85;;;7.88;;
17606;SDS011;69222;52.242;20.980;2023-06-19T05:42:54;9.82;;;8.88;;
17606;SDS011;69222;52.242;20.980;2023-06-19T05:45:23;10.13;;;7.65;;
17606;SDS011;69222;52.242;20.980;2023-06-19T05:47:51;8.38;;;7.57;;
17606;SDS011;69222;52.242;20.980;2023-06-19T05:50:19;8.00;;;7.38;;
17606;SDS011;69222;52.242;20.980;2023-06-19T05:52:47;8.88;;;8.07;;
17606;SDS011;69222;52.242;20.980;2023-06-19T05:55:17;8.38;;;7.38;;
17606;SDS011;69222;52.242;20.980;2023-06-19T05:57:45;7.85;;;7.15;;
17606;SDS011;69222;52.242;20.980;2023-06-19T06:00:13;8.25;;;7.60;;
17606;SDS011;69222;52.242;20.980;2023-06-19T06:02:42;11.05;;;7.85;;
17606;SDS011;69222;52.242;20.980;2023-06-19T06:05:10;8.18;;;7.40;;
17606;SDS011;69222;52.242;20.980;2023-06-19T06:07:39;7.35;;;6.75;;
17606;SDS011;69222;52.242;20.980;2023-06-19T06:10:07;6.50;;;6.00;;
17606;SDS011;69222;52.242;20.980;2023-06-19T06:12:37;9.80;;;6.03;;
17606;SDS011;69222;52.242;20.980;2023-06-19T06:15:05;7.30;;;6.75;;
17606;SDS011;69222;52.242;20.980;2023-06-19T06:17:34;6.63;;;6.03;;
17606;SDS011;69222;52.242;20.980;2023-06-19T06:20:02;6.47;;;5.88;;
17606;SDS011;69222;52.242;20.980;2023-06-19T06:22:35;6.25;;;5.70;;
17606;SDS011;69222;52.242;20.980;2023-06-19T06:25:03;5.65;;;5.15;;
17606;SDS011;69222;52.242;20.980;2023-06-19T06:27:32;5.97;;;5.43;;
17606;SDS011;69222;52.242;20.980;2023-06-19T06:30:02;6.15;;;5.68;;
17606;SDS011;69222;52.242;20.980;2023-06-19T06:32:30;5.85;;;5.45;;
17606;SDS011;69222;52.242;20.980;2023-06-19T06:34:58;5.38;;;4.97;;
17606;SDS011;69222;52.242;20.980;2023-06-19T06:37:26;3.75;;;3.47;;
17606;SDS011;69222;52.242;20.980;2023-06-19T06:39:54;5.43;;;4.18;;
17606;SDS011;69222;52.242;20.980;2023-06-19T06:42:22;5.07;;;4.57;;
17606;SDS011;69222;52.242;20.980;2023-06-19T06:44:50;4.70;;;4.40;;
17606;SDS011;69222;52.242;20.980;2023-06-19T06:47:20;5.30;;;4.80;;
17606;SDS011;69222;52.242;20.980;2023-06-19T06:49:48;4.10;;;3.80;;
17606;SDS011;69222;52.242;20.980;2023-06-19T06:52:16;4.43;;;4.03;;
17606;SDS011;69222;52.242;20.980;2023-06-19T06:54:44;4.72;;;3.97;;
17606;SDS011;69222;52.242;20.980;2023-06-19T06:57:12;5.43;;;4.70;;
17606;SDS011;69222;52.242;20.980;2023-06-19T06:59:43;5.80;;;4.30;;
17606;SDS011;69222;52.242;20.980;2023-06-19T07:02:12;4.97;;;4.57;;
17606;SDS011;69222;52.242;20.980;2023-06-19T07:04:41;4.95;;;4.53;;
17606;SDS011;69222;52.242;20.980;2023-06-19T07:07:09;5.35;;;4.85;;
17606;SDS011;69222;52.242;20.980;2023-06-19T07:09:37;5.20;;;4.80;;
17606;SDS011;69222;52.242;20.980;2023-06-19T07:12:06;8.43;;;5.60;;
17606;SDS011;69222;52.242;20.980;2023-06-19T07:14:34;5.85;;;5.32;;
17606;SDS011;69222;52.242;20.980;2023-06-19T07:17:02;6.50;;;6.00;;
17606;SDS011;69222;52.242;20.980;2023-06-19T07:19:33;5.05;;;4.65;;
17606;SDS011;69222;52.242;20.980;2023-06-19T07:22:03;5.25;;;4.85;;
17606;SDS011;69222;52.242;20.980;2023-06-19T07:24:32;5.68;;;5.20;;
17606;SDS011;69222;52.242;20.980;2023-06-19T07:27:00;5.40;;;5.00;;
17606;SDS011;69222;52.242;20.980;2023-06-19T07:29:29;5.70;;;4.70;;
17606;SDS011;69222;52.242;20.980;2023-06-19T07:31:58;5.80;;;4.82;;
17606;SDS011;69222;52.242;20.980;2023-06-19T07:34:30;5.72;;;5.25;;
17606;SDS011;69222;52.242;20.980;2023-06-19T07:36:58;6.88;;;5.25;;
17606;SDS011;69222;52.242;20.980;2023-06-19T07:39:27;5.22;;;4.72;;
17606;SDS011;69222;52.242;20.980;2023-06-19T07:41:55;6.38;;;5.10;;
17606;SDS011;69222;52.242;20.980;2023-06-19T07:44:23;5.85;;;5.13;;
17606;SDS011;69222;52.242;20.980;2023-06-19T07:46:51;6.15;;;5.55;;
17606;SDS011;69222;52.242;20.980;2023-06-19T07:49:19;6.00;;;5.47;;
17606;SDS011;69222;52.242;20.980;2023-06-19T07:51:47;6.47;;;5.88;;
17606;SDS011;69222;52.242;20.980;2023-06-19T07:54:15;6.22;;;5.72;;
17606;SDS011;69222;52.242;20.980;2023-06-19T07:56:45;6.53;;;6.03;;
17606;SDS011;69222;52.242;20.980;2023-06-19T07:59:13;7.85;;;6.53;;
17606;SDS011;69222;52.242;20.980;2023-06-19T08:01:41;6.47;;;5.90;;
17606;SDS011;69222;52.242;20.980;2023-06-19T08:04:09;6.80;;;6.18;;
17606;SDS011;69222;52.242;20.980;2023-06-19T08:06:37;7.50;;;5.50;;
17606;SDS011;69222;52.242;20.980;2023-06-19T08:09:08;7.40;;;6.70;;
17606;SDS011;69222;52.242;20.980;2023-06-19T08:11:36;7.82;;;6.50;;
17606;SDS011;69222;52.242;20.980;2023-06-19T08:14:06;6.45;;;5.90;;
17606;SDS011;69222;52.242;20.980;2023-06-19T08:16:34;7.05;;;5.47;;
17606;SDS011;69222;52.242;20.980;2023-06-19T08:19:02;7.70;;;5.93;;
17606;SDS011;69222;52.242;20.980;2023-06-19T08:21:30;6.07;;;5.57;;
17606;SDS011;69222;52.242;20.980;2023-06-19T08:23:58;6.20;;;5.70;;
17606;SDS011;69222;52.242;20.980;2023-06-19T08:26:27;6.70;;;6.15;;
17606;SDS011;69222;52.242;20.980;2023-06-19T08:28:55;7.05;;;6.00;;
17606;SDS011;69222;52.242;20.980;2023-06-19T08:31:24;4.20;;;3.90;;
17606;SDS011;69222;52.242;20.980;2023-06-19T08:33:53;4.88;;;4.47;;
17606;SDS011;69222;52.242;20.980;2023-06-19T08:36:22;5.53;;;4.70;;
17606;SDS011;69222;52.242;20.980;2023-06-19T08:38:52;5.65;;;5.25;;
17606;SDS011;69222;52.242;20.980;2023-06-19T08:41:21;5.70;;;5.20;;
17606;SDS011;69222;52.242;20.980;2023-06-19T08:43:51;5.43;;;4.93;;
17606;SDS011;69222;52.242;20.980;2023-06-19T08:46:20;6.30;;;5.47;;
17606;SDS011;69222;52.242;20.980;2023-06-19T08:48:49;5.10;;;4.55;;
17606;SDS011;69222;52.242;20.980;2023-06-19T08:51:20;4.97;;;4.57;;
17606;SDS011;69222;52.242;20.980;2023-06-19T08:53:49;5.82;;;4.95;;
17606;SDS011;69222;52.242;20.980;2023-06-19T08:56:25;4.90;;;4.40;;
17606;SDS011;69222;52.242;20.980;2023-06-19T08:58:53;5.35;;;4.78;;
17606;SDS011;69222;52.242;20.980;2023-06-19T09:01:21;5.65;;;5.05;;
17606;SDS011;69222;52.242;20.980;2023-06-19T09:03:54;6.47;;;4.93;;
17606;SDS011;69222;52.242;20.980;2023-06-19T09:06:23;5.05;;;4.65;;
17606;SDS011;69222;52.242;20.980;2023-06-19T09:08:59;4.85;;;4.45;;
17606;SDS011;69222;52.242;20.980;2023-06-19T09:11:28;5.28;;;4.80;;
17606;SDS011;69222;52.242;20.980;2023-06-19T09:13:57;5.70;;;5.10;;
17606;SDS011;69222;52.242;20.980;2023-06-19T09:16:36;5.25;;;4.75;;
17606;SDS011;69222;52.242;20.980;2023-06-19T09:19:06;5.70;;;4.80;;
17606;SDS011;69222;52.242;20.980;2023-06-19T09:21:35;6.32;;;5.30;;
17606;SDS011;69222;52.242;20.980;2023-06-19T09:24:05;4.53;;;4.13;;
17606;SDS011;69222;52.242;20.980;2023-06-19T09:26:34;5.57;;;4.88;;
17606;SDS011;69222;52.242;20.980;2023-06-19T09:29:11;5.18;;;4.68;;
17606;SDS011;69222;52.242;20.980;2023-06-19T09:31:46;4.40;;;4.00;;
17606;SDS011;69222;52.242;20.980;2023-06-19T09:34:15;4.80;;;4.40;;
17606;SDS011;69222;52.242;20.980;2023-06-19T09:36:43;4.47;;;4.07;;
17606;SDS011;69222;52.242;20.980;2023-06-19T09:39:13;5.45;;;4.40;;
17606;SDS011;69222;52.242;20.980;2023-06-19T09:41:43;4.22;;;3.90;;
17606;SDS011;69222;52.242;20.980;2023-06-19T09:44:14;4.07;;;3.63;;
17606;SDS011;69222;52.242;20.980;2023-06-19T09:46:44;3.80;;;3.50;;
17606;SDS011;69222;52.242;20.980;2023-06-19T09:49:15;4.18;;;3.88;;
17606;SDS011;69222;52.242;20.980;2023-06-19T09:51:45;3.80;;;3.50;;
17606;SDS011;69222;52.242;20.980;2023-06-19T09:54:13;4.15;;;3.85;;
17606;SDS011;69222;52.242;20.980;2023-06-19T09:56:43;4.40;;;3.78;;
17606;SDS011;69222;52.242;20.980;2023-06-19T09:59:11;4.93;;;3.20;;
17606;SDS011;69222;52.242;20.980;2023-06-19T10:01:40;4.22;;;3.88;;
17606;SDS011;69222;52.242;20.980;2023-06-19T10:04:09;4.68;;;3.60;;
17606;SDS011;69222;52.242;20.980;2023-06-19T10:06:43;3.72;;;3.42;;
17606;SDS011;69222;52.242;20.980;2023-06-19T10:09:13;3.60;;;3.30;;
17606;SDS011;69222;52.242;20.980;2023-06-19T10:11:45;4.45;;;4.05;;
17606;SDS011;69222;52.242;20.980;2023-06-19T10:14:14;3.58;;;3.28;;
17606;SDS011;69222;52.242;20.980;2023-06-19T10:16:45;4.03;;;3.20;;
17606;SDS011;69222;52.242;20.980;2023-06-19T10:19:13;3.90;;;3.60;;
17606;SDS011;69222;52.242;20.980;2023-06-19T10:21:47;8.98;;;4.18;;
17606;SDS011;69222;52.242;20.980;2023-06-19T10:24:17;4.20;;;3.90;;
17606;SDS011;69222;52.242;20.980;2023-06-19T10:26:56;5.78;;;4.20;;
17606;SDS011;69222;52.242;20.980;2023-06-19T10:29:26;4.40;;;4.10;;
17606;SDS011;69222;52.242;20.980;2023-06-19T10:32:07;4.22;;;3.15;;
17606;SDS011;69222;52.242;20.980;2023-06-19T10:34:35;10.32;;;3.97;;
17606;SDS011;69222;52.242;20.980;2023-06-19T10:37:05;4.88;;;3.20;;
17606;SDS011;69222;52.242;20.980;2023-06-19T10:39:33;4.97;;;3.20;;
17606;SDS011;69222;52.242;20.980;2023-06-19T10:42:04;3.97;;;3.67;;
17606;SDS011;69222;52.242;20.980;2023-06-19T10:44:34;3.90;;;3.40;;
17606;SDS011;69222;52.242;20.980;2023-06-19T10:47:03;5.05;;;3.38;;
17606;SDS011;69222;52.242;20.980;2023-06-19T10:49:33;3.42;;;2.70;;
17606;SDS011;69222;52.242;20.980;2023-06-19T10:52:02;3.35;;;2.97;;
17606;SDS011;69222;52.242;20.980;2023-06-19T10:54:32;3.20;;;3.00;;
17606;SDS011;69222;52.242;20.980;2023-06-19T10:57:03;3.78;;;3.42;;
17606;SDS011;69222;52.242;20.980;2023-06-19T10:59:33;3.63;;;3.03;;
17606;SDS011;69222;52.242;20.980;2023-06-19T11:02:01;3.92;;;3.42;;
17606;SDS011;69222;52.242;20.980;2023-06-19T11:04:29;3.88;;;3.22;;
17606;SDS011;69222;52.242;20.980;2023-06-19T11:06:58;3.83;;;3.42;;
17606;SDS011;69222;52.242;20.980;2023-06-19T11:09:34;4.07;;;3.20;;
17606;SDS011;69222;52.242;20.980;2023-06-19T11:12:03;3.08;;;2.88;;
17606;SDS011;69222;52.242;20.980;2023-06-19T11:14:34;3.45;;;3.15;;
17606;SDS011;69222;52.242;20.980;2023-06-19T11:17:06;3.03;;;2.83;;
17606;SDS011;69222;52.242;20.980;2023-06-19T11:19:34;3.63;;;3.03;;
17606;SDS011;69222;52.242;20.980;2023-06-19T11:22:06;3.80;;;2.67;;
17606;SDS011;69222;52.242;20.980;2023-06-19T11:24:34;3.97;;;3.60;;
17606;SDS011;69222;52.242;20.980;2023-06-19T11:27:02;4.15;;;3.15;;
17606;SDS011;69222;52.242;20.980;2023-06-19T11:29:31;3.60;;;3.30;;
17606;SDS011;69222;52.242;20.980;2023-06-19T11:32:04;3.25;;;3.05;;
17606;SDS011;69222;52.242;20.980;2023-06-19T11:34:34;3.22;;;2.78;;
17606;SDS011;69222;52.242;20.980;2023-06-19T11:37:12;17.92;;;6.43;;
17606;SDS011;69222;52.242;20.980;2023-06-19T11:39:41;3.22;;;3.03;;
17606;SDS011;69222;52.242;20.980;2023-06-19T11:42:10;3.17;;;2.78;;
17606;SDS011;69222;52.242;20.980;2023-06-19T11:44:52;3.63;;;3.40;;
17606;SDS011;69222;52.242;20.980;2023-06-19T11:47:21;3.22;;;2.92;;
17606;SDS011;69222;52.242;20.980;2023-06-19T11:49:49;4.75;;;3.28;;
17606;SDS011;69222;52.242;20.980;2023-06-19T11:52:19;3.50;;;3.20;;
17606;SDS011;69222;52.242;20.980;2023-06-19T11:54:47;4.93;;;3.45;;
17606;SDS011;69222;52.242;20.980;2023-06-19T11:57:15;3.25;;;3.05;;
17606;SDS011;69222;52.242;20.980;2023-06-19T11:59:43;3.33;;;3.03;;
17606;SDS011;69222;52.242;20.980;2023-06-19T12:02:12;3.63;;;3.10;;
17606;SDS011;69222;52.242;20.980;2023-06-19T12:04:40;4.00;;;3.40;;
17606;SDS011;69222;52.242;20.980;2023-06-19T12:07:08;3.50;;;3.20;;
17606;SDS011;69222;52.242;20.980;2023-06-19T12:09:39;3.50;;;3.20;;
17606;SDS011;69222;52.242;20.980;2023-06-19T12:12:08;5.63;;;3.45;;
17606;SDS011;69222;52.242;20.980;2023-06-19T12:14:36;4.28;;;3.08;;
17606;SDS011;69222;52.242;20.980;2023-06-19T12:17:06;3.30;;;3.00;;
17606;SDS011;69222;52.242;20.980;2023-06-19T12:19:35;3.92;;;3.58;;
17606;SDS011;69222;52.242;20.980;2023-06-19T12:22:03;3.30;;;3.00;;
17606;SDS011;69222;52.242;20.980;2023-06-19T12:24:32;3.50;;;3.30;;
17606;SDS011;69222;52.242;20.980;2023-06-19T12:27:01;4.03;;;3.63;;
17606;SDS011;69222;52.242;20.980;2023-06-19T12:29:29;3.90;;;3.60;;
17606;SDS011;69222;52.242;20.980;2023-06-19T12:31:59;4.20;;;3.90;;
17606;SDS011;69222;52.242;20.980;2023-06-19T12:34:28;4.70;;;4.20;;
17606;SDS011;69222;52.242;20.980;2023-06-19T12:36:57;4.32;;;3.92;;
17606;SDS011;69222;52.242;20.980;2023-06-19T12:39:25;3.90;;;3.60;;
17606;SDS011;69222;52.242;20.980;2023-06-19T12:41:54;4.45;;;3.83;;
17606;SDS011;69222;52.242;20.980;2023-06-19T12:44:23;4.38;;;3.97;;
17606;SDS011;69222;52.242;20.980;2023-06-19T12:46:52;4.53;;;3.63;;
17606;SDS011;69222;52.242;20.980;2023-06-19T12:49:20;6.25;;;4.03;;
17606;SDS011;69222;52.242;20.980;2023-06-19T12:51:48;4.10;;;3.55;;
17606;SDS011;69222;52.242;20.980;2023-06-19T12:54:18;4.22;;;3.67;;
17606;SDS011;69222;52.242;20.980;2023-06-19T12:56:46;3.97;;;3.58;;
17606;SDS011;69222;52.242;20.980;2023-06-19T12:59:14;4.22;;;3.83;;
17606;SDS011;69222;52.242;20.980;2023-06-19T13:01:44;4.63;;;4.03;;
17606;SDS011;69222;52.242;20.980;2023-06-19T13:04:12;4.03;;;3.72;;
17606;SDS011;69222;52.242;20.980;2023-06-19T13:06:41;4.00;;;3.55;;
17606;SDS011;69222;52.242;20.980;2023-06-19T13:09:09;4.15;;;3.80;;
17606;SDS011;69222;52.242;20.980;2023-06-19T13:11:37;4.07;;;3.67;;
17606;SDS011;69222;52.242;20.980;2023-06-19T13:14:05;3.92;;;3.53;;
17606;SDS011;69222;52.242;20.980;2023-06-19T13:16:33;4.28;;;3.47;;
17606;SDS011;69222;52.242;20.980;2023-06-19T13:19:05;4.35;;;3.92;;
17606;SDS011;69222;52.242;20.980;2023-06-19T13:21:34;4.10;;;3.80;;
17606;SDS011;69222;52.242;20.980;2023-06-19T13:24:03;4.05;;;3.75;;
17606;SDS011;69222;52.242;20.980;2023-06-19T13:26:31;4.28;;;3.85;;
17606;SDS011;69222;52.242;20.980;2023-06-19T13:28:59;4.53;;;4.13;;
17606;SDS011;69222;52.242;20.980;2023-06-19T13:31:27;3.78;;;3.47;;
17606;SDS011;69222;52.242;20.980;2023-06-19T13:33:55;3.92;;;3.60;;
17606;SDS011;69222;52.242;20.980;2023-06-19T13:36:26;4.47;;;4.07;;
17606;SDS011;69222;52.242;20.980;2023-06-19T13:38:54;4.45;;;3.97;;
17606;SDS011;69222;52.242;20.980;2023-06-19T13:41:22;5.63;;;5.13;;
17606;SDS011;69222;52.242;20.980;2023-06-19T13:43:51;4.38;;;4.03;;
17606;SDS011;69222;52.242;20.980;2023-06-19T13:46:20;3.90;;;3.60;;
17606;SDS011;69222;52.242;20.980;2023-06-19T13:48:49;3.88;;;3.58;;
17606;SDS011;69222;52.242;20.980;2023-06-19T13:51:18;4.13;;;3.65;;
17606;SDS011;69222;52.242;20.980;2023-06-19T13:53:48;4.47;;;3.85;;
17606;SDS011;69222;52.242;20.980;2023-06-19T13:56:17;4.47;;;4.10;;
17606;SDS011;69222;52.242;20.980;2023-06-19T13:58:46;3.92;;;3.63;;
17606;SDS011;69222;52.242;20.980;2023-06-19T14:01:14;4.35;;;4.05;;
17606;SDS011;69222;52.242;20.980;2023-06-19T14:03:42;4.93;;;4.43;;
17606;SDS011;69222;52.242;20.980;2023-06-19T14:06:10;5.45;;;3.80;;
17606;SDS011;69222;52.242;20.980;2023-06-19T14:08:39;6.63;;;3.80;;
17606;SDS011;69222;52.242;20.980;2023-06-19T14:11:08;4.25;;;3.85;;
17606;SDS011;69222;52.242;20.980;2023-06-19T14:13:36;4.95;;;4.38;;
17606;SDS011;69222;52.242;20.980;2023-06-19T14:16:04;4.68;;;3.50;;
17606;SDS011;69222;52.242;20.980;2023-06-19T14:18:32;6.18;;;4.13;;
17606;SDS011;69222;52.242;20.980;2023-06-19T14:21:04;4.40;;;3.75;;
17606;SDS011;69222;52.242;20.980;2023-06-19T14:23:32;4.90;;;4.25;;
17606;SDS011;69222;52.242;20.980;2023-06-19T14:26:05;7.22;;;4.22;;
17606;SDS011;69222;52.242;20.980;2023-06-19T14:28:35;4.43;;;3.88;;
17606;SDS011;69222;52.242;20.980;2023-06-19T14:31:04;5.30;;;4.35;;
17606;SDS011;69222;52.242;20.980;2023-06-19T14:33:32;4.10;;;3.53;;
17606;SDS011;69222;52.242;20.980;2023-06-19T14:36:02;4.18;;;3.80;;
17606;SDS011;69222;52.242;20.980;2023-06-19T14:38:33;4.20;;;3.90;;